Airfield :
LOGIN :

Register | Disclaimer

   EN    FR    IT 

 










Legend :    VFR   Marginal VFR   IFR   Intensive IFR   Very Intensive IFR
Visi :
Ceiling :
>= 8 km
>= 3000ft
5 to 8 km
1000 to 3000 ft
1500m to 5 km
500 to 1000 ft
800 to 1500m
200 to 500 ft
< 800m
< 200 ft
Symbols :   Thunderstorms  Fog  Heavy snow  Heavy precipitations  Wind > 20 kt
SIGMETs :     Misc.  Thunderstorms  Icing  Turbulence  Mountain Waves  Volcanic Ashes







- Airport Elevation : 614 ft
- IATA code : CRL


EBCI - Charleroi

CURRENT METAR :
  • 240820Z 23016KT 9999 BKN026 17/11 Q1018 NOSIG

EXPIRED METARs :
  • 240750Z 24015KT 9999 BKN026 16/11 Q1018 NOSIG
  • 240720Z 23017KT 9999 BKN026 16/11 Q1018 NOSIG
  • 240650Z 23014KT 9999 BKN026 15/11 Q1018 NOSIG
  • 240620Z 23016KT 9999 BKN026 16/11 Q1018 NOSIG
  • 240550Z 23013KT 9999 BKN026 15/11 Q1018 NOSIG

TAF TAF EBCI
Valid from the 24 at 06:00 until the 25 at 12:00 UTC


240510Z 2406/2512 24010KT 9999 FEW030
PROB40
TEMPO 2500/2506 BKN011
PROB30
TEMPO 2502/2505 4000 RADZ BKN006
No reported NOTAMs for that airfield.



MET'MAP, your aeronautical weather chart ! - Copyright ORBIFLY December 2007 - Disclaimer

ORBIFLY MET'MAP TEAM :

Programming & Development : Alexandra Zaïnal
Concept & Development : Baudouin d'Aumeries
Co-Development & Prog : Marc-Olivier Méhu
Technical & hardware support : Manuel Goepfert

Contact : metmap@orbifly.com




SOURCES & CREDITS :

   NOAA